Weather at Sabera Geneina Airport

Public forecast

Using degrees Celsius for public forecast. Weather courtesy of forecast.io.

Closest aviation weather report (METAR) to Sabera Geneina Airport

Report is more than 6 hours old.

Closest report is Abeche Airport, 101.2 nm (187.5 km) WNW. Retrieved 2022/08/14 09:00 UTC (18 hours ago):

FTTC 140900Z 18006KT 9999 BKN040 29/// Q1012

Closest aviation forecast (TAF) to Sabera Geneina Airport

Forecast is more than 12 hours old.

Closest forecast is Geneina Airport, 4.1 nm (7.6 km) W. Retrieved 2011/06/10 09:00 UTC (11 years ago):

TAF HSGN 100700Z 1009/1018 06006KT CAVOK 6000 HZ TEMPO 1009/1012 32008KT CAVOK